Black Oak, Arkansas
Current Conditions -  °F | °C
As of 6:53 AM on Saturday 25 Oct 2014 (Local Time) from KJBR Reporting Station
Few Clouds Few Clouds  
Wind Chill: 57°   Ceiling: Unl
Heat Index: 57°   Visibility: 10mi
Dew Point: 55°   Wind: 6mph
Humidity: 93%   Direction: 230°SW
Pressure: 30.07"   Gusts: NA
Location:  35.84°N, 90.37°W
Report Text: KJBR 251153Z AUTO 23005KT 10SM FEW004 14/13 A3007 RMK AO2 SLP181 T01390128 10167 20128 51005
Loading
Personal Weather Stations






























Interactive Weather Map
Tropical Storm Tracking
New forecast layout! Learn more

10-Day Weather Forecast

Advertisements
Track Severe Weather on mobile